AirNav   Duncan Aviation - Near you to keep you flying
 
 720 users online  

1WI9 Blackhawk Island Airport
Fort Atkinson, Wisconsin, USA

GOING TO FORT ATKINSON?


FAA INFORMATION EFFECTIVE 26 JANUARY 2023

Location

FAA Identifier: 1WI9
Lat/Long: 42-54-50.0200N 088-52-00.3860W
42-54.833667N 088-52.006433W
42.9138944,-88.8667739
(estimated)
Elevation: 800 ft. / 244 m (estimated)
Variation: 00W (1985)
From city: 4 miles SW of FORT ATKINSON, WI
Time zone: UTC -6 (UTC -5 during Daylight Saving Time)
Zip code: 53538

Airport Operations

Airport use: Private use. Permission required prior to landing
Activation date: 05/1989
Control tower: no
ARTCC: CHICAGO CENTER
FSS: GREEN BAY FLIGHT SERVICE STATION
Attendance: UNATNDD
Wind indicator: yes
Segmented circle: no

Airport Communications

WX AWOS-3 at RYV (17 nm N): 119.975 (920-261-0734)
WX AWOS-3 at JVL (19 nm SW): PHONE 608-758-1723

Nearby radio navigation aids

VOR radial/distance  VOR name  Freq  Var
JVLr023/23.8JANESVILLE VOR/DME114.3003E
MSNr121/24.9MADISON VORTAC108.6003E
BAEr243/28.3BADGER VOR/DME116.4002E

 
NDB name  Hdg/Dist  Freq  Var  ID
ROCK RIVER203/16.837101WRYV .-. -.-- ...-

Airport Services

Runway Information

Runway 18/36

Dimensions: 1950 x 80 ft. / 594 x 24 m
Surface: turf
RUNWAY 18  RUNWAY 36
Traffic pattern: leftleft

Airport Ownership and Management from official FAA records

Ownership: Privately-owned
Owner: LYLE FETTIG
W 6789 WESTPHAL LANE
FORT ATKINSON, WI 53538
Phone 414-563-7643
Manager: LYLE FETTIG
W 6789 WESTPHAL LANE
FORT ATKINSON, WI 53538
Phone 414-563-7643

Airport Operational Statistics

Aircraft based on the field: 2
Single engine airplanes: 2
    

Additional Remarks

FOR CD CTC CHICAGO ARTCC AT 630-906-8921.

Instrument Procedures

There are no published instrument procedures at 1WI9.

Some nearby airports with instrument procedures:

61C - Fort Atkinson Municipal Airport (4 nm NE)
KRYV - Watertown Municipal Airport (17 nm N)
87Y - Blackhawk Airfield (18 nm NW)
KJVL - Southern Wisconsin Regional Airport (19 nm SW)
57C - East Troy Municipal Airport (23 nm E)
 
Loc | Ops | Rwys | IFR | FBO | Links
Com | Nav | Svcs | Stats | Notes
Area around 1WI9 (Blackhawk Island Airport)
 
Road maps at: MapQuest Bing Google
 
Aerial photo
No photo
 
Sectional chart

 
Airport distance calculator
Flying to Blackhawk Island Airport? Find the distance to fly.

From to 1WI9

Sunrise and sunset
Times for 06-Feb-2023
 Local
(UTC-6)
 Zulu
(UTC)
Morning civil twilight06:3612:36
Sunrise07:0613:06
Sunset17:1423:14
Evening civil twilight17:4323:43

Current date and time
Zulu (UTC)  07-Feb-2023 05:47:33
Local (UTC-6)  06-Feb-2023 23:47:33
 
METAR
KRYV 
17nm NE 
070535Z AUTO 17016G23KT 10SM OVC034 06/00 A2966 RMK AO2 LTG DSNT NE T00581003
KJVL 
19nm S 
070535Z AUTO 18021G28KT 10SM SCT034 SCT049 06/01 A2967 RMK AO2
K57C 
23nm E 
070535Z AUTO 19012G20KT 10SM BKN034 OVC042 06/00 A2970 RMK AO2 T00621002
KMSN 
25nm NW 
070453Z 17018G26KT 10SM OVC039 05/00 A2965 RMK AO2 PK WND 16038/0402 RAB24E34 SLP048 LAST P0000 T00500000
KBUU 
29nm SE 
070535Z AUTO 18014G22KT 10SM OVC035 06/00 A2971 RMK AO2 T00620000 PWINO
KUNU 
31nm N 
070535Z AUTO 15012G18KT 10SM OVC036 04/M01 A2967 RMK AO2 LTG DSNT NE T00361006
KC29 
32nm NW 
070535Z AUTO 18011KT 10SM OVC035 05/02 A2965 RMK AO1 P0001 T00520018
KUES 
33nm E 
070535Z AUTO 16011G17KT 10SM OVC033 03/M01 A2971 RMK AO2
TAF
KJVL 
19nm S 
070317Z 0703/0724 15013G28KT P6SM SCT030 BKN050 OVC120 WS020/19060KT FM070600 18019G24KT P6SM VCSH SCT013 OVC026 WS020/20055KT FM070900 24014G22KT P6SM SCT007 BKN013 OVC028 FM072200 28013KT P6SM SCT022 OVC035
NOTAMs
Click for the latest NOTAMs
NOTAMs are issued by the DoD/FAA and will open in a separate window not controlled by AirNav.

 

 
 

Would you like to see your business listed on this page?

 If your business provides an interesting product or service to pilots, flight crews, aircraft, or users of the Blackhawk Island Airport, you should consider listing it here.  To start the listing process, click on the button below
 
Add a business
 

Other Pages about Blackhawk Island Airport

Update a link
 
Copyright © AirNav, LLC. All rights reserved. Privacy Policy  Contact